Time;durP1;ratioP1;P1;durP2;ratioP2;P2;SDS_P1;SDS_P2;PMS_P1;PMS_P2;Temp;Humidity;BMP_temperature;BMP_pressure;BME280_temperature;BME280_humidity;BME280_pressure;Samples;Min_cycle;Max_cycle;Signal;HPM_P1;HPM_P2
2023/01/01 00:00:54;;;;;;;40.83;26.98;;;9.80;99.90;;;;;;4013199;29;20052;-86
2023/01/01 00:03:14;;;;;;;50.15;31.48;;;9.90;99.90;;;;;;4014521;29;20371;-85
2023/01/01 00:05:38;;;;;;;55.90;37.15;;;9.90;99.90;;;;;;4014506;29;20106;-85
2023/01/01 00:07:58;;;;;;;59.03;43.00;;;9.90;99.90;;;;;;4021238;29;20154;-86
2023/01/01 00:10:27;;;;;;;44.83;31.27;;;9.90;99.90;;;;;;4025710;29;20084;-85
2023/01/01 00:12:47;;;;;;;54.83;35.83;;;9.80;99.90;;;;;;4014663;29;20400;-85
2023/01/01 00:15:07;;;;;;;45.60;33.15;;;9.80;99.90;;;;;;4014667;29;20404;-86
2023/01/01 00:17:29;;;;;;;47.55;33.33;;;9.80;99.90;;;;;;4014677;29;20091;-86
2023/01/01 00:19:48;;;;;;;110.55;80.90;;;9.90;99.90;;;;;;4013083;29;20370;-85
2023/01/01 00:22:08;;;;;;;63.08;42.83;;;9.90;99.90;;;;;;4016537;29;20248;-86
2023/01/01 00:24:48;;;;;;;69.55;51.67;;;9.80;99.90;;;;;;4016617;29;20365;-86
2023/01/01 00:27:09;;;;;;;87.85;62.45;;;9.80;99.90;;;;;;4016157;29;20061;-86
2023/01/01 00:29:30;;;;;;;75.63;53.78;;;9.90;99.90;;;;;;4017183;29;20049;-86
2023/01/01 00:31:50;;;;;;;87.82;64.00;;;9.90;99.90;;;;;;4017245;29;20057;-86
2023/01/01 00:34:10;;;;;;;79.32;58.28;;;9.90;99.90;;;;;;4017008;29;20270;-86
2023/01/01 00:36:30;;;;;;;87.57;62.58;;;9.90;99.90;;;;;;4017127;29;20053;-86
2023/01/01 00:38:50;;;;;;;53.40;39.92;;;9.80;99.90;;;;;;4017146;29;20314;-86
2023/01/01 00:41:12;;;;;;;42.35;28.77;;;9.90;99.90;;;;;;4016183;29;20117;-86
2023/01/01 00:43:32;;;;;;;62.88;45.97;;;10.00;99.90;;;;;;4014986;29;20061;-85
2023/01/01 00:45:52;;;;;;;86.13;60.38;;;10.00;99.90;;;;;;4015779;29;20073;-86
2023/01/01 00:48:13;;;;;;;69.13;49.38;;;10.00;99.90;;;;;;4004478;29;20054;-85
2023/01/01 00:50:32;;;;;;;55.83;43.33;;;9.90;99.90;;;;;;4016995;29;20080;-86
2023/01/01 00:52:52;;;;;;;70.22;45.53;;;9.90;99.90;;;;;;4015337;29;20045;-86
2023/01/01 00:55:12;;;;;;;57.05;44.90;;;9.80;99.90;;;;;;4016661;29;20069;-86
2023/01/01 00:57:32;;;;;;;60.50;44.50;;;9.80;99.90;;;;;;4028933;29;20123;-86
2023/01/01 00:59:52;;;;;;;69.18;49.00;;;9.80;99.90;;;;;;4016748;29;20081;-86
2023/01/01 01:02:12;;;;;;;53.17;41.60;;;9.80;99.90;;;;;;4016906;29;20372;-86
2023/01/01 01:04:32;;;;;;;54.72;42.63;;;9.90;99.90;;;;;;4016458;29;20091;-85
2023/01/01 01:06:52;;;;;;;54.88;42.08;;;9.90;99.90;;;;;;4016709;29;20084;-85
2023/01/01 01:09:12;;;;;;;61.55;46.03;;;9.90;99.90;;;;;;4015752;29;20053;-86
2023/01/01 01:11:32;;;;;;;60.92;44.33;;;9.90;99.90;;;;;;4028786;29;20072;-85
2023/01/01 01:13:54;;;;;;;59.33;44.33;;;9.90;99.90;;;;;;4007522;29;20085;-86
2023/01/01 01:16:21;;;;;;;62.28;45.70;;;9.90;99.90;;;;;;4016351;29;20241;-86
2023/01/01 01:18:41;;;;;;;62.15;44.90;;;9.80;99.90;;;;;;4016052;29;20049;-86
2023/01/01 01:21:02;;;;;;;67.32;46.65;;;9.80;99.90;;;;;;4028182;29;20085;-86
2023/01/01 01:23:22;;;;;;;65.13;47.17;;;9.80;99.90;;;;;;4015291;29;20045;-86
2023/01/01 01:25:42;;;;;;;67.53;45.00;;;9.80;99.90;;;;;;4016337;29;20061;-86
2023/01/01 01:28:02;;;;;;;58.92;43.60;;;9.80;99.90;;;;;;4028306;29;20069;-86
2023/01/01 01:30:22;;;;;;;62.20;46.95;;;9.80;99.90;;;;;;4002396;29;20053;-86
2023/01/01 01:32:42;;;;;;;71.95;50.00;;;9.90;99.90;;;;;;4015626;29;20137;-86
2023/01/01 01:35:01;;;;;;;60.17;47.05;;;9.90;99.90;;;;;;4016359;29;20116;-85
2023/01/01 01:37:22;;;;;;;67.80;47.20;;;9.90;99.90;;;;;;4016412;29;20048;-86
2023/01/01 01:39:42;;;;;;;80.55;56.78;;;9.90;99.90;;;;;;4028463;29;20256;-86
2023/01/01 01:42:02;;;;;;;77.97;56.78;;;9.90;99.90;;;;;;4016346;29;20060;-86
2023/01/01 01:44:57;;;;;;;73.07;53.63;;;9.80;99.90;;;;;;4027780;29;20497;-86
2023/01/01 01:47:49;;;;;;;78.40;56.35;;;9.90;99.90;;;;;;4016104;29;20125;-86
2023/01/01 01:50:21;;;;;;;68.53;50.63;;;9.90;99.90;;;;;;4016111;29;20110;-86
2023/01/01 01:53:03;;;;;;;58.65;42.80;;;9.90;99.90;;;;;;4004845;29;20086;-86
2023/01/01 01:55:27;;;;;;;62.50;42.33;;;10.00;99.90;;;;;;4015321;29;20248;-86
2023/01/01 01:57:47;;;;;;;45.22;34.67;;;10.00;99.90;;;;;;4014382;29;20049;-86
2023/01/01 02:00:08;;;;;;;94.75;57.83;;;10.00;99.90;;;;;;4015142;29;20371;-86
2023/01/01 02:02:52;;;;;;;78.35;54.55;;;9.90;99.90;;;;;;4015314;29;20429;-86
2023/01/01 02:05:12;;;;;;;50.10;37.08;;;9.80;99.90;;;;;;4014721;29;20134;-86
2023/01/01 02:07:34;;;;;;;55.03;40.40;;;9.90;99.90;;;;;;4015367;29;20294;-85
2023/01/01 02:09:55;;;;;;;56.47;39.88;;;10.00;99.90;;;;;;4015612;29;20322;-85
2023/01/01 02:12:15;;;;;;;78.57;49.03;;;10.10;99.90;;;;;;4015504;29;20057;-85
2023/01/01 02:14:35;;;;;;;64.00;44.40;;;10.10;99.90;;;;;;4027942;29;20044;-86
2023/01/01 02:17:01;;;;;;;69.15;48.97;;;10.10;99.90;;;;;;4005251;29;20085;-86
2023/01/01 02:19:42;;;;;;;83.85;53.05;;;10.10;99.90;;;;;;4015693;29;20376;-86
2023/01/01 02:22:40;;;;;;;75.20;52.40;;;10.00;99.90;;;;;;4015540;29;20057;-86
2023/01/01 02:25:03;;;;;;;71.45;50.60;;;10.00;99.90;;;;;;4015573;29;20279;-86
2023/01/01 02:27:45;;;;;;;67.70;46.92;;;9.90;99.90;;;;;;4015701;29;20090;-86
2023/01/01 02:30:07;;;;;;;76.07;48.17;;;9.90;99.90;;;;;;4014778;29;20090;-86
2023/01/01 02:32:40;;;;;;;60.97;41.45;;;9.80;99.90;;;;;;4013908;29;20053;-86
2023/01/01 02:35:34;;;;;;;55.33;40.97;;;9.80;99.90;;;;;;4015768;29;20241;-86
2023/01/01 02:37:58;;;;;;;63.75;43.22;;;9.80;99.90;;;;;;4013304;29;20159;-86
2023/01/01 02:40:21;;;;;;;66.22;46.08;;;9.70;99.90;;;;;;4014341;29;20143;-86
2023/01/01 02:42:41;;;;;;;66.47;42.35;;;9.70;99.90;;;;;;4003520;29;20155;-86
2023/01/01 02:45:01;;;;;;;53.20;38.05;;;9.70;99.90;;;;;;4005097;29;20070;-86
2023/01/01 02:47:21;;;;;;;49.78;33.83;;;9.80;99.90;;;;;;4015515;29;20113;-86
2023/01/01 02:49:49;;;;;;;44.00;32.80;;;9.80;99.90;;;;;;4015646;29;20252;-86
2023/01/01 02:52:30;;;;;;;56.60;41.40;;;9.80;99.90;;;;;;4015092;29;20126;-86
2023/01/01 02:55:04;;;;;;;52.03;39.72;;;9.90;99.90;;;;;;4008089;29;20064;-85
2023/01/01 02:57:39;;;;;;;37.15;29.40;;;9.80;99.90;;;;;;4014160;29;20049;-86
2023/01/01 03:00:30;;;;;;;35.75;27.42;;;9.90;99.90;;;;;;4015059;29;20106;-86
2023/01/01 03:03:23;;;;;;;54.88;39.20;;;9.80;99.90;;;;;;4027513;29;20370;-86
2023/01/01 03:08:48;;;;;;;30.15;26.60;;;9.90;99.90;;;;;;4014935;29;20089;-85
2023/01/01 03:11:14;;;;;;;42.53;32.13;;;9.90;99.90;;;;;;4002602;29;20050;-86
2023/01/01 03:13:39;;;;;;;39.17;31.70;;;9.90;99.90;;;;;;4015045;29;20094;-86
2023/01/01 03:16:07;;;;;;;44.88;32.63;;;9.90;99.90;;;;;;4014918;29;20052;-86
2023/01/01 03:18:36;;;;;;;44.80;32.63;;;10.00;99.90;;;;;;4015163;29;20106;-86
2023/01/01 03:20:58;;;;;;;37.10;25.88;;;9.90;99.90;;;;;;4015064;29;20072;-86
2023/01/01 03:23:25;;;;;;;27.60;24.20;;;10.00;99.90;;;;;;4026160;29;20089;-86
2023/01/01 03:25:53;;;;;;;29.35;23.73;;;10.00;99.90;;;;;;4014943;29;20072;-86
2023/01/01 03:28:21;;;;;;;31.75;23.98;;;10.00;99.90;;;;;;4015022;29;20094;-86
2023/01/01 03:30:44;;;;;;;33.53;25.35;;;9.90;99.90;;;;;;4013454;29;20086;-85
2023/01/01 03:33:11;;;;;;;27.35;22.63;;;9.80;99.90;;;;;;4013907;29;20082;-86
2023/01/01 03:35:31;;;;;;;30.95;22.85;;;9.70;99.90;;;;;;4013164;29;20088;-85
2023/01/01 03:37:54;;;;;;;29.30;24.50;;;9.80;99.90;;;;;;4015041;29;20052;-85
2023/01/01 03:40:16;;;;;;;41.58;28.15;;;9.80;99.90;;;;;;4014846;29;20052;-85
2023/01/01 03:42:49;;;;;;;26.93;23.03;;;9.70;99.90;;;;;;4014477;29;20139;-85
2023/01/01 03:45:36;;;;;;;47.88;31.85;;;9.70;99.90;;;;;;4006250;29;20425;-86
2023/01/01 03:47:57;;;;;;;45.10;31.17;;;9.60;99.90;;;;;;4014627;29;20052;-86
2023/01/01 03:50:20;;;;;;;50.20;34.50;;;9.50;99.90;;;;;;4014748;29;20094;-86
2023/01/01 03:52:51;;;;;;;51.17;33.08;;;9.40;99.90;;;;;;4014018;29;20067;-85
2023/01/01 03:55:15;;;;;;;411.65;43.17;;;9.40;99.90;;;;;;4026227;29;20596;-86
2023/01/01 03:58:36;;;;;;;495.45;42.90;;;9.30;99.90;;;;;;4014328;29;20085;-86
2023/01/01 04:01:07;;;;;;;178.45;31.60;;;9.10;99.90;;;;;;4014534;29;20077;-86
2023/01/01 04:03:29;;;;;;;51.20;27.02;;;9.00;99.90;;;;;;4013748;29;20076;-86
2023/01/01 04:05:50;;;;;;;41.50;27.52;;;9.10;99.90;;;;;;4013819;29;20068;-85
2023/01/01 04:08:11;;;;;;;39.65;25.52;;;9.10;99.90;;;;;;4014581;29;20450;-85
2023/01/01 04:10:35;;;;;;;42.22;25.92;;;9.20;99.90;;;;;;4014516;29;20080;-86
2023/01/01 04:12:56;;;;;;;37.50;25.77;;;9.20;99.90;;;;;;4014603;29;20328;-86
2023/01/01 04:15:23;;;;;;;36.60;26.58;;;9.30;99.90;;;;;;4014626;29;20218;-86
2023/01/01 04:17:43;;;;;;;48.13;33.28;;;9.30;99.90;;;;;;4012512;29;20053;-86
2023/01/01 04:20:03;;;;;;;41.70;29.50;;;9.50;99.90;;;;;;4008417;29;20410;-86
2023/01/01 04:22:23;;;;;;;42.33;27.58;;;9.50;99.90;;;;;;4014573;29;20253;-85
2023/01/01 04:24:43;;;;;;;31.65;21.50;;;9.50;99.90;;;;;;4003424;29;20126;-86
2023/01/01 04:27:03;;;;;;;32.53;24.98;;;9.60;99.90;;;;;;4012048;29;20068;-85
2023/01/01 04:29:23;;;;;;;39.63;27.17;;;9.60;99.90;;;;;;4016095;29;20049;-86
2023/01/01 04:31:43;;;;;;;36.22;27.67;;;9.60;99.90;;;;;;4014310;29;20060;-86
2023/01/01 04:34:04;;;;;;;40.92;29.23;;;9.60;99.90;;;;;;4004455;29;20286;-85
2023/01/01 04:36:24;;;;;;;37.35;26.75;;;9.60;99.90;;;;;;4014444;29;20045;-86
2023/01/01 04:38:43;;;;;;;38.42;28.95;;;9.60;99.90;;;;;;4015016;29;20066;-85
2023/01/01 04:41:04;;;;;;;40.30;27.02;;;9.60;99.90;;;;;;4013782;29;20249;-85
2023/01/01 04:43:24;;;;;;;38.40;28.25;;;9.60;99.90;;;;;;4013613;29;20087;-86
2023/01/01 04:45:57;;;;;;;42.75;32.13;;;9.50;99.90;;;;;;4013531;29;20056;-86
2023/01/01 04:48:17;;;;;;;51.30;33.47;;;9.40;99.90;;;;;;4014128;29;20091;-86
2023/01/01 04:50:36;;;;;;;170.05;36.83;;;9.20;99.90;;;;;;4004584;29;20069;-86
2023/01/01 04:52:58;;;;;;;83.72;34.85;;;9.20;99.90;;;;;;4013500;29;20292;-85
2023/01/01 04:55:17;;;;;;;43.08;31.45;;;9.10;99.90;;;;;;4014248;29;20080;-86
2023/01/01 04:57:37;;;;;;;71.75;32.10;;;9.20;99.90;;;;;;4014645;29;20118;-86
2023/01/01 04:59:57;;;;;;;39.38;30.25;;;9.20;99.90;;;;;;4026405;29;20094;-86
2023/01/01 05:02:16;;;;;;;53.55;33.90;;;9.20;99.90;;;;;;4013932;29;20159;-85
2023/01/01 05:04:36;;;;;;;38.75;31.05;;;9.20;99.90;;;;;;4014132;29;20417;-85
2023/01/01 05:06:56;;;;;;;42.85;29.63;;;9.30;99.90;;;;;;4026747;29;20281;-85
2023/01/01 05:09:16;;;;;;;45.60;29.58;;;9.30;99.90;;;;;;4016507;29;20102;-86
2023/01/01 05:11:37;;;;;;;42.95;29.10;;;9.20;99.90;;;;;;4016015;29;20052;-85
2023/01/01 05:13:59;;;;;;;42.70;29.95;;;9.30;99.90;;;;;;4015681;29;20073;-85
2023/01/01 05:16:21;;;;;;;38.25;28.85;;;9.20;99.90;;;;;;4016753;29;20053;-86
2023/01/01 05:18:42;;;;;;;32.55;25.42;;;9.30;99.90;;;;;;4015549;29;20124;-85
2023/01/01 05:21:09;;;;;;;32.78;25.65;;;9.30;99.90;;;;;;4016663;29;20188;-86
2023/01/01 05:23:29;;;;;;;37.65;25.42;;;9.30;99.90;;;;;;4028269;29;20401;-86
2023/01/01 05:25:50;;;;;;;47.00;28.02;;;9.30;99.90;;;;;;4028078;29;20064;-86
2023/01/01 05:28:09;;;;;;;42.47;27.33;;;9.30;99.90;;;;;;4016018;29;20057;-86
2023/01/01 05:30:30;;;;;;;39.13;27.42;;;9.40;99.90;;;;;;4016607;29;20053;-86
2023/01/01 05:32:50;;;;;;;43.63;27.15;;;9.40;99.90;;;;;;4008772;29;20056;-86
2023/01/01 05:35:10;;;;;;;35.63;26.75;;;9.40;99.90;;;;;;4017441;29;20367;-85
2023/01/01 05:37:30;;;;;;;42.05;28.55;;;9.50;99.90;;;;;;4015546;29;20109;-85
2023/01/01 05:39:50;;;;;;;46.70;29.17;;;9.40;99.90;;;;;;4016071;29;20084;-85
2023/01/01 05:42:10;;;;;;;45.45;27.50;;;9.50;99.90;;;;;;4015474;29;20065;-85
2023/01/01 05:44:29;;;;;;;33.60;24.88;;;9.50;99.90;;;;;;4028477;29;20085;-85
2023/01/01 05:46:49;;;;;;;44.08;26.67;;;9.50;99.90;;;;;;4016069;29;20102;-86
2023/01/01 05:49:10;;;;;;;35.85;24.90;;;9.50;99.90;;;;;;4016301;29;20049;-86
2023/01/01 05:51:30;;;;;;;107.15;32.65;;;9.60;99.90;;;;;;4016317;29;20084;-85
2023/01/01 05:53:51;;;;;;;63.53;27.15;;;9.50;99.90;;;;;;4015466;29;20268;-86
2023/01/01 05:56:11;;;;;;;64.28;29.90;;;9.40;99.90;;;;;;4006573;29;20056;-85
2023/01/01 05:58:33;;;;;;;68.65;31.00;;;9.40;99.90;;;;;;4016347;29;20041;-85
2023/01/01 06:00:54;;;;;;;56.20;30.92;;;9.30;99.90;;;;;;4015973;29;20122;-86
2023/01/01 06:03:14;;;;;;;37.10;30.25;;;9.20;99.90;;;;;;4015782;29;20114;-86
2023/01/01 06:05:34;;;;;;;75.10;31.17;;;9.20;99.90;;;;;;4027715;29;20056;-86
2023/01/01 06:07:54;;;;;;;135.15;31.13;;;9.20;99.90;;;;;;4017134;29;20390;-86
2023/01/01 06:10:14;;;;;;;87.45;28.45;;;9.20;99.90;;;;;;4014088;29;20052;-85
2023/01/01 06:12:34;;;;;;;100.85;29.00;;;9.20;99.90;;;;;;4014531;29;20154;-85
2023/01/01 06:14:54;;;;;;;90.60;31.63;;;9.20;99.90;;;;;;4015033;29;20090;-86
2023/01/01 06:17:14;;;;;;;48.13;31.00;;;9.20;99.90;;;;;;4015848;29;20348;-86
2023/01/01 06:19:34;;;;;;;50.05;33.22;;;9.20;99.90;;;;;;4014996;29;20061;-86
2023/01/01 06:21:53;;;;;;;49.97;32.88;;;9.30;99.90;;;;;;4015631;29;20057;-85
2023/01/01 06:24:14;;;;;;;46.80;30.05;;;9.30;99.90;;;;;;4014656;29;20060;-86
2023/01/01 06:26:34;;;;;;;76.25;45.90;;;9.30;99.90;;;;;;4025958;29;20056;-85
2023/01/01 06:28:55;;;;;;;52.75;35.63;;;9.40;99.90;;;;;;4003478;29;20050;-85
2023/01/01 06:31:17;;;;;;;65.07;40.88;;;9.40;99.90;;;;;;4015390;29;20057;-86
2023/01/01 06:33:37;;;;;;;59.13;36.73;;;9.50;99.90;;;;;;4015695;29;20094;-86
2023/01/01 06:35:58;;;;;;;53.22;33.72;;;9.50;99.90;;;;;;4026808;29;20373;-86
2023/01/01 06:38:17;;;;;;;47.00;31.40;;;9.50;99.90;;;;;;4017822;29;20257;-86
2023/01/01 06:40:37;;;;;;;47.28;29.70;;;9.50;99.90;;;;;;4015787;29;20125;-86
2023/01/01 06:42:57;;;;;;;47.65;33.28;;;9.60;99.90;;;;;;4015604;29;20125;-85
2023/01/01 06:45:17;;;;;;;40.42;26.60;;;9.50;99.90;;;;;;4015267;29;20056;-85
2023/01/01 06:47:37;;;;;;;39.58;26.58;;;9.60;99.90;;;;;;4014659;29;20064;-85
2023/01/01 06:49:57;;;;;;;34.65;24.77;;;9.60;99.90;;;;;;4015423;29;20617;-85
2023/01/01 06:52:17;;;;;;;51.80;30.88;;;9.60;99.90;;;;;;4015431;29;20487;-85
2023/01/01 06:54:36;;;;;;;60.90;29.88;;;9.70;99.90;;;;;;4025750;29;20067;-85
2023/01/01 06:56:56;;;;;;;44.75;26.23;;;9.70;99.90;;;;;;4015503;29;20053;-85
2023/01/01 06:59:16;;;;;;;45.47;29.23;;;9.70;99.90;;;;;;4027782;29;20049;-85
2023/01/01 07:01:40;;;;;;;43.97;27.73;;;9.70;99.90;;;;;;4015475;29;20114;-85
2023/01/01 07:04:07;;;;;;;46.30;25.15;;;9.70;99.90;;;;;;4014981;29;20405;-85
2023/01/01 07:06:29;;;;;;;35.65;23.20;;;9.70;99.90;;;;;;4014392;29;20066;-85
2023/01/01 07:08:50;;;;;;;20.80;14.93;;;9.70;99.90;;;;;;4013950;29;20292;-85
2023/01/01 07:11:10;;;;;;;18.33;12.70;;;9.60;99.90;;;;;;4016256;29;20297;-85
2023/01/01 07:13:30;;;;;;;20.13;14.82;;;9.50;99.90;;;;;;4005530;29;20080;-85
2023/01/01 07:15:50;;;;;;;18.77;16.45;;;9.30;99.90;;;;;;4019293;29;20053;-85
2023/01/01 07:18:10;;;;;;;33.20;23.67;;;9.30;99.90;;;;;;4014974;29;20053;-85
2023/01/01 07:20:30;;;;;;;26.92;22.50;;;9.30;99.90;;;;;;4015261;29;20056;-85
2023/01/01 07:22:50;;;;;;;23.65;17.90;;;9.30;99.90;;;;;;4013341;29;20045;-85
2023/01/01 07:25:13;;;;;;;19.85;12.93;;;9.30;99.90;;;;;;4012906;29;20084;-85
2023/01/01 07:27:33;;;;;;;;;;;9.30;99.90;;;;;;4015507;29;20048;-85
2023/01/01 07:29:52;;;;;;;12.93;9.30;;;9.30;99.90;;;;;;4025525;29;20302;-85
2023/01/01 07:32:13;;;;;;;10.85;9.52;;;9.30;99.90;;;;;;4014407;29;20078;-85
2023/01/01 07:34:33;;;;;;;12.98;9.90;;;9.30;99.90;;;;;;4013080;29;20060;-85
2023/01/01 07:36:52;;;;;;;12.20;11.00;;;9.30;99.90;;;;;;4014941;29;20053;-85
2023/01/01 07:39:12;;;;;;;12.10;8.88;;;9.30;99.90;;;;;;4013265;29;20045;-85
2023/01/01 07:41:32;;;;;;;11.95;10.07;;;9.40;99.90;;;;;;4008030;29;20110;-85
2023/01/01 07:43:52;;;;;;;13.07;9.77;;;9.40;99.90;;;;;;4014645;29;20049;-85
2023/01/01 07:46:15;;;;;;;25.38;20.20;;;9.50;99.90;;;;;;4014993;29;20240;-85
2023/01/01 07:48:34;;;;;;;22.08;17.00;;;9.60;99.90;;;;;;4014679;29;20065;-86
2023/01/01 07:50:59;;;;;;;20.65;17.23;;;9.60;99.90;;;;;;4014418;29;20041;-85
2023/01/01 07:53:19;;;;;;;16.15;14.55;;;9.70;99.90;;;;;;4016621;29;20070;-85
2023/01/01 07:55:39;;;;;;;15.68;12.52;;;9.70;99.90;;;;;;4004807;29;20053;-85
2023/01/01 07:58:00;;;;;;;14.40;13.00;;;9.80;99.90;;;;;;4014394;29;20057;-85
2023/01/01 08:00:21;;;;;;;10.73;9.65;;;9.90;99.90;;;;;;4014617;29;20064;-85
2023/01/01 08:02:40;;;;;;;10.15;9.35;;;9.90;99.90;;;;;;4014229;29;20081;-86
2023/01/01 08:05:00;;;;;;;12.43;10.65;;;10.00;99.90;;;;;;4026835;29;20066;-85
2023/01/01 08:07:20;;;;;;;13.57;11.55;;;10.00;99.90;;;;;;4014654;29;20053;-85
2023/01/01 08:09:40;;;;;;;12.90;11.35;;;10.10;99.90;;;;;;4014710;29;20397;-85
2023/01/01 08:12:00;;;;;;;22.52;15.13;;;10.10;99.90;;;;;;4014489;29;20158;-85
2023/01/01 08:14:20;;;;;;;19.15;16.67;;;10.10;99.90;;;;;;4013360;29;20059;-85
2023/01/01 08:16:39;;;;;;;17.23;14.45;;;10.00;99.90;;;;;;4013326;29;20390;-85
2023/01/01 08:18:59;;;;;;;26.77;18.98;;;10.10;99.90;;;;;;4014591;29;20109;-85
2023/01/01 08:21:19;;;;;;;25.23;19.63;;;10.00;99.90;;;;;;4001944;29;20081;-85
2023/01/01 08:23:39;;;;;;;34.00;21.08;;;9.90;99.90;;;;;;4014504;29;20045;-85
2023/01/01 08:26:01;;;;;;;28.15;21.48;;;9.90;99.90;;;;;;4012433;29;20080;-85
2023/01/01 08:28:21;;;;;;;25.40;18.25;;;9.90;99.90;;;;;;4014460;29;20060;-85
2023/01/01 08:30:41;;;;;;;24.15;17.13;;;10.00;99.90;;;;;;4012601;29;20090;-85
2023/01/01 08:33:01;;;;;;;22.83;17.85;;;10.10;99.90;;;;;;4014025;29;20082;-85
2023/01/01 08:35:21;;;;;;;17.90;15.88;;;9.90;99.90;;;;;;4014400;29;20090;-86
2023/01/01 08:37:41;;;;;;;23.30;18.38;;;9.90;99.90;;;;;;4025824;29;20045;-85
2023/01/01 08:40:01;;;;;;;21.55;18.77;;;9.90;99.90;;;;;;4014487;29;20296;-85
2023/01/01 08:42:21;;;;;;;22.42;19.42;;;10.00;99.90;;;;;;4004802;29;20077;-85
2023/01/01 08:44:40;;;;;;;22.08;19.08;;;9.90;99.90;;;;;;4016183;29;20248;-85
2023/01/01 08:47:00;;;;;;;37.00;21.70;;;9.80;99.90;;;;;;4008303;29;20064;-85
2023/01/01 08:49:20;;;;;;;28.08;18.63;;;9.80;99.90;;;;;;4016728;29;20351;-85
2023/01/01 08:51:40;;;;;;;21.15;17.10;;;9.90;99.90;;;;;;4028415;29;20274;-86
2023/01/01 08:54:00;;;;;;;24.17;19.50;;;9.90;99.90;;;;;;4017052;29;20375;-88
2023/01/01 08:56:20;;;;;;;28.25;20.67;;;9.90;99.90;;;;;;4016547;29;20061;-85
2023/01/01 08:58:42;;;;;;;29.42;21.92;;;9.90;99.90;;;;;;4016911;29;20045;-85
2023/01/01 09:01:02;;;;;;;55.53;40.63;;;9.90;99.90;;;;;;4016893;29;20052;-85
2023/01/01 09:03:22;;;;;;;41.58;28.20;;;9.90;99.90;;;;;;4023078;29;20064;-85
2023/01/01 09:05:44;;;;;;;35.08;27.02;;;10.00;99.90;;;;;;4016118;29;20293;-85
2023/01/01 09:08:04;;;;;;;27.73;23.90;;;10.10;99.90;;;;;;4015711;29;20127;-88
2023/01/01 09:10:24;;;;;;;32.90;28.13;;;10.10;99.90;;;;;;4028939;29;20323;-85
2023/01/01 09:12:44;;;;;;;45.05;31.10;;;10.20;99.90;;;;;;4016769;29;20076;-85
2023/01/01 09:15:05;;;;;;;34.38;30.05;;;10.20;99.90;;;;;;4015590;29;20289;-85
2023/01/01 09:17:25;;;;;;;29.30;23.90;;;10.20;99.90;;;;;;4004710;29;20418;-86
2023/01/01 09:19:44;;;;;;;32.70;26.88;;;10.20;99.90;;;;;;4007142;29;20100;-85
2023/01/01 09:22:11;;;;;;;34.08;26.80;;;10.20;99.90;;;;;;4016636;29;20053;-85
2023/01/01 09:24:31;;;;;;;31.77;25.13;;;10.30;99.90;;;;;;4016188;29;20069;-85
2023/01/01 09:26:51;;;;;;;30.55;22.73;;;10.40;99.90;;;;;;4015244;29;20123;-85
2023/01/01 09:29:10;;;;;;;31.98;25.58;;;10.40;99.90;;;;;;4028341;29;20053;-85
2023/01/01 09:31:31;;;;;;;28.52;24.85;;;10.50;99.90;;;;;;4015177;29;20044;-85
2023/01/01 09:33:51;;;;;;;32.17;26.45;;;10.50;99.90;;;;;;4015471;29;20060;-86
2023/01/01 09:36:24;;;;;;;33.00;26.95;;;10.60;99.90;;;;;;4014858;29;20053;-85
2023/01/01 09:38:51;;;;;;;31.00;26.58;;;10.70;99.90;;;;;;4016061;29;20068;-85
2023/01/01 09:41:17;;;;;;;28.13;22.52;;;10.70;99.90;;;;;;4015587;29;20410;-85
2023/01/01 09:43:58;;;;;;;37.83;22.60;;;10.70;99.90;;;;;;4028093;29;20044;-86
2023/01/01 09:46:18;;;;;;;24.00;21.80;;;10.70;99.90;;;;;;4011970;29;20333;-86
2023/01/01 09:48:48;;;;;;;20.67;17.95;;;10.80;99.90;;;;;;4004665;29;20049;-85
2023/01/01 09:51:15;;;;;;;23.58;18.27;;;10.80;99.90;;;;;;4015869;29;20064;-86
2023/01/01 09:53:49;;;;;;;21.70;17.73;;;10.90;99.90;;;;;;4015520;29;20045;-86
2023/01/01 09:56:17;;;;;;;21.25;17.38;;;10.90;99.90;;;;;;4014677;29;20232;-86
2023/01/01 09:58:37;;;;;;;25.38;22.33;;;10.80;99.90;;;;;;4015228;29;20334;-86
2023/01/01 10:01:09;;;;;;;22.05;17.85;;;10.90;99.90;;;;;;4007588;29;20053;-85
2023/01/01 10:03:38;;;;;;;28.70;18.63;;;10.90;99.90;;;;;;4014772;29;20146;-86
2023/01/01 10:05:58;;;;;;;26.08;16.63;;;11.00;99.90;;;;;;4015949;29;20274;-86
2023/01/01 10:08:26;;;;;;;19.48;16.45;;;11.00;99.90;;;;;;4028212;29;20299;-85
2023/01/01 10:11:05;;;;;;;20.30;18.23;;;11.10;99.90;;;;;;4014989;29;20049;-86
2023/01/01 10:13:41;;;;;;;21.10;18.35;;;11.10;99.90;;;;;;4014275;29;20584;-86
2023/01/01 10:16:23;;;;;;;25.67;16.75;;;11.20;99.90;;;;;;4020601;29;20048;-86
2023/01/01 10:18:47;;;;;;;10.15;7.78;;;11.10;99.90;;;;;;4013903;29;20049;-86
2023/01/01 10:21:22;;;;;;;15.77;7.53;;;11.10;99.90;;;;;;4015152;29;20057;-86
2023/01/01 10:23:54;;;;;;;11.95;9.13;;;11.10;99.90;;;;;;4014579;29;20106;-86
2023/01/01 10:26:17;;;;;;;10.35;9.35;;;11.20;99.90;;;;;;4015300;29;20094;-86
2023/01/01 10:29:01;;;;;;;15.30;12.35;;;11.30;99.90;;;;;;4027615;29;20392;-85
2023/01/01 10:31:30;;;;;;;;;;;11.40;99.90;;;;;;4028306;29;20061;-85
2023/01/01 10:33:50;;;;;;;8.77;7.95;;;11.40;99.90;;;;;;4013920;29;19927;-86
2023/01/01 10:36:14;;;;;;;9.15;5.88;;;11.40;99.90;;;;;;4027506;29;20090;-85
2023/01/01 10:38:35;;;;;;;5.25;5.05;;;11.60;99.90;;;;;;4012066;29;20085;-85
2023/01/01 10:41:04;;;;;;;10.80;6.60;;;11.60;99.90;;;;;;4015554;29;20057;-85
2023/01/01 10:43:24;;;;;;;7.53;6.82;;;11.60;99.90;;;;;;4014625;29;20086;-86
2023/01/01 10:45:52;;;;;;;7.47;7.05;;;11.70;99.90;;;;;;4014785;29;20373;-85
2023/01/01 10:48:22;;;;;;;9.80;8.27;;;11.80;99.90;;;;;;4027531;29;20121;-86
2023/01/01 10:50:58;;;;;;;7.40;6.80;;;11.80;99.90;;;;;;4027699;29;20244;-85
2023/01/01 10:53:39;;;;;;;16.60;15.00;;;11.90;99.90;;;;;;4014662;29;20297;-86
2023/01/01 10:56:14;;;;;;;16.58;14.85;;;12.10;99.90;;;;;;4026807;29;20098;-85
2023/01/01 10:58:47;;;;;;;11.38;10.15;;;12.20;99.90;;;;;;4014917;29;20375;-85
2023/01/01 11:01:16;;;;;;;16.05;12.45;;;12.30;99.90;;;;;;4007382;29;20155;-86
2023/01/01 11:03:51;;;;;;;7.30;6.65;;;12.20;99.90;;;;;;4007919;29;20236;-86
2023/01/01 11:06:18;;;;;;;8.68;7.80;;;12.10;99.90;;;;;;4026421;29;20057;-85
2023/01/01 11:08:45;;;;;;;10.57;9.70;;;12.10;99.90;;;;;;4014355;29;20272;-86
2023/01/01 11:11:05;;;;;;;10.18;8.07;;;12.20;99.90;;;;;;4014870;29;20057;-85
2023/01/01 11:13:27;;;;;;;8.98;8.38;;;12.20;99.90;;;;;;4018791;29;20053;-85
2023/01/01 11:15:48;;;;;;;8.85;8.40;;;12.20;99.90;;;;;;4015248;29;20049;-86
2023/01/01 11:18:21;;;;;;;9.13;8.52;;;12.20;99.90;;;;;;4015159;29;20233;-86
2023/01/01 11:20:42;;;;;;;10.33;9.73;;;12.40;99.90;;;;;;4015253;29;20405;-85
2023/01/01 11:23:34;;;;;;;8.63;7.80;;;12.50;99.90;;;;;;4014362;29;20045;-85
2023/01/01 11:26:16;;;;;;;14.20;11.52;;;12.50;99.90;;;;;;4029503;29;20078;-85
2023/01/01 11:28:36;;;;;;;8.35;7.90;;;12.60;99.90;;;;;;4014635;29;20090;-85
2023/01/01 11:31:18;;;;;;;7.05;6.45;;;12.50;99.90;;;;;;4015103;29;20053;-85
2023/01/01 11:33:54;;;;;;;7.80;7.25;;;12.50;99.90;;;;;;4014911;29;20070;-85
2023/01/01 11:36:25;;;;;;;6.97;6.53;;;12.70;99.90;;;;;;4013495;29;20143;-85
2023/01/01 11:38:48;;;;;;;7.85;7.18;;;13.00;99.90;;;;;;4027096;29;20045;-86
2023/01/01 11:41:08;;;;;;;;;;;13.10;99.90;;;;;;4015520;29;20240;-85
2023/01/01 11:43:38;;;;;;;8.07;6.60;;;13.10;99.90;;;;;;4012731;29;19927;-85
2023/01/01 11:45:58;;;;;;;7.00;6.47;;;12.90;99.90;;;;;;4005527;29;20288;-85
2023/01/01 11:48:28;;;;;;;12.27;11.05;;;13.00;99.90;;;;;;4014881;29;20129;-85
2023/01/01 11:50:51;;;;;;;7.22;6.70;;;13.30;99.90;;;;;;4013941;29;20102;-86
2023/01/01 11:53:23;;;;;;;7.28;6.70;;;13.60;99.90;;;;;;4012496;29;20098;-86
2023/01/01 11:56:04;;;;;;;7.75;6.50;;;13.60;99.90;;;;;;4013705;29;20158;-86
2023/01/01 11:58:36;;;;;;;6.78;6.18;;;13.40;99.90;;;;;;4012909;29;20241;-86
2023/01/01 12:01:01;;;;;;;6.82;5.38;;;13.40;99.90;;;;;;4006042;29;20074;-86
2023/01/01 12:03:26;;;;;;;5.35;4.93;;;13.40;99.90;;;;;;4014157;29;20149;-86
2023/01/01 12:06:17;;;;;;;9.98;6.00;;;13.30;99.90;;;;;;4014342;29;20054;-86
2023/01/01 12:09:09;;;;;;;6.18;5.70;;;13.40;99.90;;;;;;4014632;29;20083;-86
2023/01/01 12:11:47;;;;;;;7.97;7.22;;;13.80;99.90;;;;;;4001919;29;20364;-86
2023/01/01 12:14:36;;;;;;;7.38;6.70;;;14.20;99.90;;;;;;4013563;29;20121;-86
2023/01/01 12:17:11;;;;;;;8.43;7.32;;;14.20;99.90;;;;;;4006479;29;20053;-86
2023/01/01 12:19:34;;;;;;;9.07;8.02;;;14.40;99.90;;;;;;4017025;29;20371;-86
2023/01/01 12:21:58;;;;;;;12.05;10.80;;;14.30;99.90;;;;;;4015629;29;20057;-86
2023/01/01 12:24:19;;;;;;;5.82;5.30;;;14.60;99.90;;;;;;4015549;29;20415;-86